createdAt,value
2022-09-28T00:01:32.803Z,18.36
2022-09-28T00:03:59.982Z,18.31
2022-09-28T00:06:30.426Z,18.23
2022-09-28T00:08:57.720Z,18.08
2022-09-28T00:11:28.162Z,18.10
2022-09-28T00:13:57.769Z,18.02
2022-09-28T00:16:28.118Z,17.95
2022-09-28T00:18:55.115Z,17.93
2022-09-28T00:21:27.292Z,17.98
2022-09-28T00:24:15.106Z,18.02
2022-09-28T00:26:46.554Z,17.80
2022-09-28T00:29:35.150Z,17.82
2022-09-28T00:32:07.903Z,17.76
2022-09-28T00:34:41.879Z,17.69
2022-09-28T00:37:09.575Z,17.76
2022-09-28T00:39:38.309Z,17.74
2022-09-28T00:42:18.062Z,17.67
2022-09-28T00:44:54.765Z,17.62
2022-09-28T00:47:38.006Z,17.52
2022-09-28T00:50:28.591Z,17.47
2022-09-28T00:53:10.232Z,17.66
2022-09-28T00:55:46.373Z,17.66
2022-09-28T00:58:19.553Z,17.53
2022-09-28T01:00:46.242Z,17.48
2022-09-28T01:03:14.362Z,17.47
2022-09-28T01:05:41.052Z,17.40
2022-09-28T01:08:09.099Z,17.44
2022-09-28T01:10:35.639Z,17.35
2022-09-28T01:13:02.463Z,17.24
2022-09-28T01:15:29.891Z,17.32
2022-09-28T01:18:11.740Z,17.33
2022-09-28T01:21:02.596Z,17.18
2022-09-28T01:24:01.758Z,17.21
2022-09-28T01:26:41.938Z,17.15
2022-09-28T01:29:15.449Z,17.14
2022-09-28T01:31:47.077Z,17.19
2022-09-28T01:34:26.715Z,17.10
2022-09-28T01:36:56.608Z,17.07
2022-09-28T01:39:34.737Z,17.18
2022-09-28T01:42:09.411Z,17.15
2022-09-28T01:44:41.721Z,17.31
2022-09-28T01:47:10.819Z,17.07
2022-09-28T01:49:55.689Z,17.09
2022-09-28T01:53:03.805Z,17.02
2022-09-28T01:55:37.075Z,17.14
2022-09-28T01:58:17.163Z,17.07
2022-09-28T02:00:49.249Z,17.17
2022-09-28T02:03:24.492Z,17.04
2022-09-28T02:06:04.484Z,17.03
2022-09-28T02:08:40.719Z,17.06
2022-09-28T02:11:15.855Z,17.09
2022-09-28T02:14:04.556Z,17.14
2022-09-28T02:16:45.066Z,17.14
2022-09-28T02:19:16.115Z,17.07
2022-09-28T02:22:01.088Z,17.15
2022-09-28T02:24:39.388Z,17.09
2022-09-28T02:27:16.471Z,17.10
2022-09-28T02:29:43.449Z,17.02
2022-09-28T02:32:11.063Z,17.03
2022-09-28T02:34:37.729Z,17.06
2022-09-28T02:37:04.368Z,17.06
2022-09-28T02:39:31.720Z,17.13
2022-09-28T02:42:23.619Z,17.14
2022-09-28T02:45:08.512Z,17.18
2022-09-28T02:47:58.681Z,17.24
2022-09-28T02:50:57.984Z,17.22
2022-09-28T02:53:58.750Z,17.19
2022-09-28T02:56:34.381Z,17.25
2022-09-28T02:59:13.664Z,17.32
2022-09-28T03:01:40.228Z,17.35
2022-09-28T03:04:12.874Z,17.34
2022-09-28T03:06:48.499Z,17.28
2022-09-28T03:09:20.008Z,17.23
2022-09-28T03:11:52.008Z,17.39
2022-09-28T03:14:19.441Z,17.24
2022-09-28T03:16:46.616Z,17.17
2022-09-28T03:19:16.213Z,17.15
2022-09-28T03:21:42.817Z,17.12
2022-09-28T03:24:11.265Z,17.12
2022-09-28T03:26:41.511Z,17.22
2022-09-28T03:29:08.107Z,17.19
2022-09-28T03:31:35.807Z,17.21
2022-09-28T03:34:03.793Z,17.20
2022-09-28T03:36:30.345Z,17.27
2022-09-28T03:38:59.629Z,17.24
2022-09-28T03:41:30.058Z,17.24
2022-09-28T03:43:56.677Z,17.20
2022-09-28T03:46:23.275Z,17.29
2022-09-28T03:48:49.905Z,17.27
2022-09-28T03:51:16.569Z,17.28
2022-09-28T03:53:45.218Z,17.27
2022-09-28T03:56:14.961Z,17.33
2022-09-28T03:58:42.291Z,17.35
2022-09-28T04:01:17.621Z,17.37
2022-09-28T04:03:45.167Z,17.29
2022-09-28T04:06:12.454Z,17.38
2022-09-28T04:08:39.307Z,17.18
2022-09-28T04:11:06.088Z,17.21
2022-09-28T04:13:32.825Z,17.22
2022-09-28T04:16:01.549Z,17.29
2022-09-28T04:18:28.762Z,17.31
2022-09-28T04:21:06.942Z,17.25
2022-09-28T04:23:38.097Z,17.26
2022-09-28T04:26:06.535Z,17.22
2022-09-28T04:28:52.084Z,17.15
2022-09-28T04:31:22.334Z,17.15
2022-09-28T04:33:49.008Z,17.13
2022-09-28T04:36:15.643Z,17.04
2022-09-28T04:38:52.897Z,16.96
2022-09-28T04:41:22.653Z,16.92
2022-09-28T04:43:49.965Z,16.86
2022-09-28T04:46:17.495Z,16.81
2022-09-28T04:48:44.373Z,16.82
2022-09-28T04:51:11.127Z,16.91
2022-09-28T04:53:37.896Z,16.89
2022-09-28T04:56:11.391Z,16.70
2022-09-28T04:58:40.178Z,16.69
2022-09-28T05:01:13.822Z,16.66
2022-09-28T05:03:40.749Z,16.65
2022-09-28T05:06:08.142Z,16.61
2022-09-28T05:08:35.720Z,16.56
2022-09-28T05:11:05.136Z,16.65
2022-09-28T05:13:33.482Z,16.67
2022-09-28T05:16:04.982Z,16.66
2022-09-28T05:18:32.220Z,16.57
2022-09-28T05:20:59.230Z,16.60
2022-09-28T05:23:25.900Z,16.58
2022-09-28T05:25:53.450Z,16.57
2022-09-28T05:28:25.969Z,16.63
2022-09-28T05:30:53.235Z,16.48
2022-09-28T05:33:20.529Z,16.49
2022-09-28T05:35:50.992Z,16.56
2022-09-28T05:38:20.137Z,16.52
2022-09-28T05:40:46.867Z,16.42
2022-09-28T05:43:13.573Z,16.37
2022-09-28T05:45:40.427Z,16.41
2022-09-28T05:48:07.014Z,16.43
2022-09-28T05:50:36.167Z,16.38
2022-09-28T05:53:06.072Z,16.39
2022-09-28T05:55:33.365Z,16.41
2022-09-28T05:58:01.912Z,16.37
2022-09-28T06:00:30.109Z,16.36
2022-09-28T06:03:08.674Z,16.46
2022-09-28T06:05:36.340Z,16.48
2022-09-28T06:08:05.364Z,16.43
2022-09-28T06:10:33.342Z,16.51
2022-09-28T06:13:00.435Z,16.55
2022-09-28T06:15:30.112Z,16.50
2022-09-28T06:18:01.774Z,16.48
2022-09-28T06:20:31.265Z,16.52
2022-09-28T06:22:57.842Z,16.58
2022-09-28T06:25:25.067Z,16.69
2022-09-28T06:28:03.285Z,16.75
2022-09-28T06:30:32.387Z,16.84
2022-09-28T06:33:00.453Z,16.76
2022-09-28T06:35:30.520Z,16.75
2022-09-28T06:37:58.575Z,16.76
2022-09-28T06:40:25.835Z,16.72
2022-09-28T06:43:01.013Z,16.51
2022-09-28T06:45:30.880Z,16.63
2022-09-28T06:48:01.160Z,16.76
2022-09-28T06:50:33.477Z,16.76
2022-09-28T06:53:00.779Z,16.67
2022-09-28T06:55:28.120Z,16.64
2022-09-28T06:57:59.453Z,16.67
2022-09-28T07:00:32.956Z,16.82
2022-09-28T07:03:01.558Z,16.87
2022-09-28T07:05:29.542Z,16.95
2022-09-28T07:07:57.426Z,17.08
2022-09-28T07:10:27.779Z,17.12
2022-09-28T07:12:56.359Z,17.25
2022-09-28T07:15:24.495Z,17.27
2022-09-28T07:18:01.938Z,17.35
2022-09-28T07:20:30.486Z,17.33
2022-09-28T07:23:07.604Z,17.49
2022-09-28T07:25:37.360Z,17.54
2022-09-28T07:28:05.453Z,17.57
2022-09-28T07:30:36.316Z,17.62
2022-09-28T07:33:06.144Z,17.71
2022-09-28T07:35:36.098Z,17.77
2022-09-28T07:38:05.351Z,17.71
2022-09-28T07:40:52.046Z,17.79
2022-09-28T07:43:21.004Z,17.81
2022-09-28T07:45:49.573Z,17.86
2022-09-28T07:48:17.570Z,17.93
2022-09-28T07:50:58.556Z,17.92
2022-09-28T07:53:25.917Z,17.88
2022-09-28T07:55:54.068Z,17.87
2022-09-28T07:58:21.898Z,17.84
2022-09-28T08:00:50.004Z,17.85
2022-09-28T08:03:18.650Z,17.93
2022-09-28T08:05:48.246Z,18.06
2022-09-28T08:08:16.495Z,18.08
2022-09-28T08:10:47.301Z,18.20
2022-09-28T08:13:16.442Z,18.22
2022-09-28T08:15:43.252Z,18.33
2022-09-28T08:18:11.182Z,18.32
2022-09-28T08:20:56.333Z,18.27
2022-09-28T08:23:24.215Z,18.29
2022-09-28T08:25:54.041Z,18.34
2022-09-28T08:28:22.646Z,18.38
2022-09-28T08:30:50.366Z,18.39
2022-09-28T08:33:21.280Z,18.51
2022-09-28T08:35:48.423Z,18.56
2022-09-28T08:38:15.474Z,18.61
2022-09-28T08:40:58.965Z,18.68
2022-09-28T08:43:44.176Z,18.82
2022-09-28T08:46:13.654Z,18.87
2022-09-28T08:49:13.519Z,18.90
2022-09-28T08:52:00.990Z,18.91
2022-09-28T08:54:52.103Z,19.07
2022-09-28T08:57:33.929Z,19.05
2022-09-28T09:00:02.769Z,19.02
2022-09-28T09:02:33.794Z,19.09
2022-09-28T09:05:03.720Z,19.03
2022-09-28T09:08:08.706Z,19.11
2022-09-28T09:10:52.791Z,19.24
2022-09-28T09:13:57.591Z,19.04
2022-09-28T09:16:24.366Z,19.18
2022-09-28T09:18:56.964Z,19.46
2022-09-28T09:21:47.043Z,19.59
2022-09-28T09:24:27.550Z,19.67
2022-09-28T09:27:09.498Z,19.71
2022-09-28T09:30:06.733Z,19.69
2022-09-28T09:32:33.344Z,19.82
2022-09-28T09:35:11.961Z,19.84
2022-09-28T09:38:07.083Z,19.92
2022-09-28T09:41:02.401Z,19.91
2022-09-28T09:43:58.981Z,20.03
2022-09-28T09:46:28.575Z,20.17
2022-09-28T09:49:12.729Z,20.37
2022-09-28T09:51:46.094Z,20.26
2022-09-28T09:54:22.611Z,20.36
2022-09-28T09:56:53.449Z,20.46
2022-09-28T09:59:40.033Z,20.59
2022-09-28T10:02:19.811Z,20.71
2022-09-28T10:04:50.061Z,20.84
2022-09-28T10:07:24.063Z,20.94
2022-09-28T10:09:56.803Z,21.27
2022-09-28T10:12:24.519Z,21.48
2022-09-28T10:14:51.257Z,21.66
2022-09-28T10:17:19.911Z,21.76
2022-09-28T10:19:46.656Z,21.77
2022-09-28T10:22:18.146Z,21.93
2022-09-28T10:24:49.161Z,21.99
2022-09-28T10:27:20.725Z,22.05
2022-09-28T10:30:08.991Z,21.98
2022-09-28T10:32:49.808Z,22.00
2022-09-28T10:35:19.326Z,22.17
2022-09-28T10:38:07.572Z,22.52
2022-09-28T10:40:54.355Z,22.90
2022-09-28T10:43:34.599Z,22.89
2022-09-28T10:46:03.931Z,23.17
2022-09-28T10:48:57.828Z,23.45
2022-09-28T10:51:45.707Z,23.43
2022-09-28T10:54:21.616Z,23.51
2022-09-28T10:56:49.632Z,23.58
2022-09-28T10:59:28.611Z,23.56
2022-09-28T11:02:02.348Z,23.71
2022-09-28T11:04:36.041Z,23.84
2022-09-28T11:07:02.853Z,23.89
2022-09-28T11:09:33.717Z,24.02
2022-09-28T11:12:04.363Z,24.10
2022-09-28T11:14:42.199Z,24.34
2022-09-28T11:17:32.583Z,24.41
2022-09-28T11:20:01.725Z,24.28
2022-09-28T11:22:38.037Z,24.38
2022-09-28T11:25:16.897Z,24.77
2022-09-28T11:27:52.975Z,24.90
2022-09-28T11:30:51.993Z,25.05
2022-09-28T11:33:30.810Z,25.15
2022-09-28T11:36:18.787Z,25.14
2022-09-28T11:39:03.811Z,25.08
2022-09-28T11:41:55.484Z,25.08
2022-09-28T11:44:33.411Z,24.98
2022-09-28T11:47:24.456Z,24.83
2022-09-28T11:49:57.510Z,24.72
2022-09-28T11:52:30.512Z,24.70
2022-09-28T11:55:12.799Z,24.63
2022-09-28T11:57:42.415Z,24.59
2022-09-28T12:00:24.883Z,24.54
2022-09-28T12:02:59.121Z,24.58
2022-09-28T12:05:42.018Z,24.65
2022-09-28T12:08:13.549Z,24.66
2022-09-28T12:10:48.167Z,24.64
2022-09-28T12:13:31.208Z,24.76
2022-09-28T12:16:32.323Z,24.69
2022-09-28T12:18:57.505Z,24.79
2022-09-28T12:21:46.913Z,24.66
2022-09-28T12:24:40.653Z,24.64
2022-09-28T12:27:11.892Z,24.57
2022-09-28T12:29:47.475Z,24.68
2022-09-28T12:32:17.048Z,24.60
2022-09-28T12:34:44.259Z,24.71
2022-09-28T12:37:19.971Z,24.74
2022-09-28T12:40:14.001Z,24.63
2022-09-28T12:42:59.197Z,24.37
2022-09-28T12:46:07.064Z,24.35
2022-09-28T12:49:51.535Z,24.31
2022-09-28T12:51:54.059Z,24.10
2022-09-28T12:55:05.974Z,24.16
2022-09-28T12:57:38.580Z,24.13
2022-09-28T13:00:26.842Z,24.16
2022-09-28T13:03:31.204Z,24.15
2022-09-28T13:06:18.775Z,23.99
2022-09-28T13:08:56.692Z,23.95
2022-09-28T13:11:54.769Z,23.96
2022-09-28T13:14:38.501Z,23.99
2022-09-28T13:17:14.296Z,24.04
2022-09-28T13:19:47.068Z,24.12
2022-09-28T13:22:21.543Z,24.14
2022-09-28T13:24:50.531Z,24.35
2022-09-28T13:27:42.566Z,24.21
2022-09-28T13:30:16.116Z,24.16
2022-09-28T13:32:44.206Z,24.14
2022-09-28T13:35:21.216Z,24.06
2022-09-28T13:37:48.860Z,23.96
2022-09-28T13:40:15.566Z,23.89
2022-09-28T13:42:45.708Z,23.94
2022-09-28T13:45:30.627Z,23.91
2022-09-28T13:48:00.031Z,24.02
2022-09-28T13:50:54.882Z,24.17
2022-09-28T13:53:27.708Z,24.07
2022-09-28T13:56:22.343Z,23.89
2022-09-28T13:58:58.016Z,23.84
2022-09-28T14:01:37.346Z,23.83
2022-09-28T14:04:19.459Z,23.76
2022-09-28T14:07:09.601Z,23.85
2022-09-28T14:09:44.761Z,23.95
2022-09-28T14:12:43.304Z,23.97
2022-09-28T14:15:29.545Z,24.03
2022-09-28T14:18:31.955Z,24.06
2022-09-28T14:21:21.058Z,23.98
2022-09-28T14:24:05.630Z,23.88
2022-09-28T14:27:00.644Z,23.89
2022-09-28T14:29:38.287Z,23.87
2022-09-28T14:32:08.925Z,23.86
2022-09-28T14:34:40.514Z,23.83
2022-09-28T14:37:40.903Z,23.80
2022-09-28T14:40:38.512Z,23.80
2022-09-28T14:43:24.582Z,23.82
2022-09-28T14:46:19.979Z,23.91
2022-09-28T14:48:52.813Z,23.93
2022-09-28T14:51:31.750Z,23.89
2022-09-28T14:54:13.581Z,23.92
2022-09-28T14:56:52.514Z,23.87
2022-09-28T14:59:24.907Z,23.83
2022-09-28T15:02:01.074Z,23.79
2022-09-28T15:04:30.728Z,23.77
2022-09-28T15:07:00.356Z,23.74
2022-09-28T15:09:31.475Z,23.74
2022-09-28T15:12:02.367Z,23.86
2022-09-28T15:14:31.843Z,23.82
2022-09-28T15:17:10.027Z,23.87
2022-09-28T15:19:57.415Z,23.91
2022-09-28T15:22:24.212Z,23.76
2022-09-28T15:25:02.670Z,23.74
2022-09-28T15:27:37.608Z,23.63
2022-09-28T15:30:43.479Z,23.69
2022-09-28T15:33:59.943Z,23.57
2022-09-28T15:36:29.819Z,23.51
2022-09-28T15:39:03.250Z,23.44
2022-09-28T15:41:30.081Z,23.32
2022-09-28T15:44:15.441Z,23.33
2022-09-28T15:46:47.883Z,23.26
2022-09-28T15:49:39.081Z,23.26
2022-09-28T15:52:06.301Z,23.26
2022-09-28T15:54:44.475Z,23.26
2022-09-28T15:57:37.073Z,23.24
2022-09-28T16:00:29.193Z,23.16
2022-09-28T16:03:05.535Z,23.18
2022-09-28T16:05:45.364Z,23.10
2022-09-28T16:08:37.617Z,23.15
2022-09-28T16:11:26.271Z,23.05
2022-09-28T16:13:56.718Z,23.10
2022-09-28T16:16:30.938Z,23.05
2022-09-28T16:21:38.214Z,22.93
2022-09-28T16:24:05.188Z,22.92
2022-09-28T16:26:37.784Z,22.97
2022-09-28T16:29:41.876Z,22.86
2022-09-28T16:32:59.925Z,22.84
2022-09-28T16:35:29.432Z,22.79
2022-09-28T16:37:59.429Z,22.77
2022-09-28T16:40:27.301Z,22.71
2022-09-28T16:43:00.142Z,22.66
2022-09-28T16:45:28.574Z,22.75
2022-09-28T16:47:59.399Z,22.70
2022-09-28T16:50:26.784Z,22.66
2022-09-28T16:53:18.806Z,22.61
2022-09-28T16:55:48.007Z,22.51
2022-09-28T16:58:14.706Z,22.44
2022-09-28T17:03:18.670Z,22.36
2022-09-28T17:05:48.136Z,22.36
2022-09-28T17:08:17.562Z,22.41
2022-09-28T17:11:13.821Z,22.32
2022-09-28T17:13:40.100Z,22.29
2022-09-28T17:16:57.284Z,22.40
2022-09-28T17:19:23.438Z,22.36
2022-09-28T17:21:51.288Z,22.33
2022-09-28T17:24:19.312Z,22.32
2022-09-28T17:26:50.011Z,22.34
2022-09-28T17:29:18.629Z,22.36
2022-09-28T17:31:46.822Z,22.40
2022-09-28T17:34:16.057Z,22.38
2022-09-28T17:36:44.095Z,22.40
2022-09-28T17:39:13.522Z,22.50
2022-09-28T17:41:41.082Z,22.41
2022-09-28T17:44:08.442Z,22.32
2022-09-28T17:46:39.529Z,22.30
2022-09-28T17:49:10.417Z,22.27
2022-09-28T17:51:40.414Z,22.25
2022-09-28T17:54:08.185Z,22.14
2022-09-28T17:56:36.044Z,22.09
2022-09-28T17:59:07.926Z,22.00
2022-09-28T18:01:38.999Z,21.94
2022-09-28T18:04:08.191Z,21.94
2022-09-28T18:06:35.201Z,21.95
2022-09-28T18:09:05.532Z,21.87
2022-09-28T18:11:33.934Z,21.81
2022-09-28T18:14:01.074Z,21.82
2022-09-28T18:16:28.965Z,21.79
2022-09-28T18:18:56.347Z,21.81
2022-09-28T18:21:22.928Z,21.77
2022-09-28T18:23:50.272Z,21.71
2022-09-28T18:26:19.627Z,21.70
2022-09-28T18:28:46.901Z,21.70
2022-09-28T18:31:15.722Z,21.70
2022-09-28T18:33:53.239Z,21.61
2022-09-28T18:36:20.158Z,21.66
2022-09-28T18:38:47.049Z,21.62
2022-09-28T18:41:18.522Z,21.57
2022-09-28T18:43:49.821Z,21.57
2022-09-28T18:46:18.676Z,21.59
2022-09-28T18:48:47.221Z,21.61
2022-09-28T18:51:14.267Z,21.61
2022-09-28T18:53:41.031Z,21.55
2022-09-28T18:56:09.801Z,21.51
2022-09-28T18:58:38.815Z,21.54
2022-09-28T19:01:29.581Z,21.60
2022-09-28T19:04:01.737Z,21.57
2022-09-28T19:06:29.238Z,21.52
2022-09-28T19:08:56.689Z,21.49
2022-09-28T19:11:24.433Z,21.50
2022-09-28T19:13:51.329Z,21.59
2022-09-28T19:16:21.055Z,21.58
2022-09-28T19:18:48.338Z,21.49
2022-09-28T19:21:15.864Z,21.52
2022-09-28T19:23:49.681Z,21.52
2022-09-28T19:26:23.761Z,21.49
2022-09-28T19:28:50.799Z,21.52
2022-09-28T19:31:17.864Z,21.53
2022-09-28T19:33:48.221Z,21.54
2022-09-28T19:36:22.202Z,21.44
2022-09-28T19:38:49.178Z,21.46
2022-09-28T19:41:45.846Z,21.63
2022-09-28T19:44:27.503Z,21.54
2022-09-28T19:46:59.019Z,21.46
2022-09-28T19:49:27.408Z,21.45
2022-09-28T19:52:12.906Z,21.52
2022-09-28T19:55:01.035Z,21.49
2022-09-28T19:57:30.735Z,21.53
2022-09-28T20:00:02.020Z,21.63
2022-09-28T20:02:29.986Z,21.51
2022-09-28T20:04:56.826Z,21.42
2022-09-28T20:07:23.635Z,21.55
2022-09-28T20:09:52.325Z,21.52
2022-09-28T20:12:19.010Z,21.47
2022-09-28T20:14:45.945Z,21.43
2022-09-28T20:17:12.712Z,21.54
2022-09-28T20:19:39.553Z,21.62
2022-09-28T20:22:06.187Z,21.74
2022-09-28T20:24:33.044Z,21.69
2022-09-28T20:27:01.580Z,21.55
2022-09-28T20:29:29.580Z,21.49
2022-09-28T20:31:56.752Z,21.48
2022-09-28T20:34:26.891Z,21.54
2022-09-28T20:36:53.821Z,21.51
2022-09-28T20:39:25.284Z,21.38
2022-09-28T20:41:56.036Z,21.40
2022-09-28T20:44:23.845Z,21.57
2022-09-28T20:46:52.971Z,21.50
2022-09-28T20:49:20.742Z,21.55
2022-09-28T20:51:48.683Z,21.55
2022-09-28T20:54:17.624Z,21.45
2022-09-28T20:56:44.743Z,21.53
2022-09-28T20:59:13.571Z,21.43
2022-09-28T21:01:41.987Z,21.40
2022-09-28T21:04:12.342Z,21.41
2022-09-28T21:06:41.054Z,21.43
2022-09-28T21:09:11.583Z,21.34
2022-09-28T21:11:40.453Z,21.25
2022-09-28T21:14:10.871Z,21.34
2022-09-28T21:16:39.618Z,21.36
2022-09-28T21:19:07.939Z,21.36
2022-09-28T21:21:38.057Z,21.26
2022-09-28T21:24:06.343Z,21.22
2022-09-28T21:26:35.687Z,21.13
2022-09-28T21:29:06.007Z,21.20
2022-09-28T21:31:39.497Z,21.12
2022-09-28T21:34:07.775Z,21.08
2022-09-28T21:36:38.412Z,21.12
2022-09-28T21:39:10.241Z,21.04
2022-09-28T21:41:39.056Z,20.99
2022-09-28T21:44:06.410Z,21.02
2022-09-28T21:46:35.897Z,21.05
2022-09-28T21:49:08.003Z,20.98
2022-09-28T21:51:38.405Z,20.96
2022-09-28T21:54:09.142Z,20.93
2022-09-28T21:56:38.393Z,20.91
2022-09-28T21:59:05.125Z,20.89
2022-09-28T22:01:32.953Z,20.86
2022-09-28T22:04:00.020Z,20.80
2022-09-28T22:06:30.649Z,20.78
2022-09-28T22:08:57.827Z,20.77
2022-09-28T22:11:28.053Z,20.70
2022-09-28T22:13:58.141Z,20.64
2022-09-28T22:16:27.649Z,20.63
2022-09-28T22:19:02.092Z,20.56
2022-09-28T22:21:34.994Z,20.51
2022-09-28T22:24:06.607Z,20.43
2022-09-28T22:26:38.319Z,20.33
2022-09-28T22:29:13.031Z,20.27
2022-09-28T22:31:41.838Z,20.10
2022-09-28T22:34:15.893Z,20.07
2022-09-28T22:36:56.374Z,19.91
2022-09-28T22:39:25.794Z,19.80
2022-09-28T22:41:55.246Z,19.72
2022-09-28T22:44:24.573Z,19.63
2022-09-28T22:46:55.887Z,19.58
2022-09-28T22:49:29.081Z,19.51
2022-09-28T22:51:55.892Z,19.41
2022-09-28T22:54:29.111Z,19.27
2022-09-28T22:57:05.816Z,19.24
2022-09-28T22:59:33.058Z,19.17
2022-09-28T23:01:59.891Z,19.22
2022-09-28T23:04:49.842Z,19.18
2022-09-28T23:07:16.651Z,19.05
2022-09-28T23:09:43.411Z,19.02
2022-09-28T23:12:09.970Z,18.97
2022-09-28T23:14:36.588Z,18.97
2022-09-28T23:17:03.228Z,18.93
2022-09-28T23:19:30.620Z,18.90
2022-09-28T23:21:59.370Z,18.89
2022-09-28T23:24:26.040Z,18.90
2022-09-28T23:26:52.833Z,18.81
2022-09-28T23:29:19.791Z,18.80
2022-09-28T23:31:46.708Z,18.76
2022-09-28T23:34:13.484Z,18.80
2022-09-28T23:36:41.048Z,18.72
2022-09-28T23:39:12.349Z,18.71
2022-09-28T23:41:39.956Z,18.63
2022-09-28T23:44:06.575Z,18.65
2022-09-28T23:46:37.066Z,18.68
2022-09-28T23:49:03.688Z,18.65
2022-09-28T23:51:30.596Z,18.59
2022-09-28T23:53:57.412Z,18.62
2022-09-28T23:56:24.033Z,18.56
2022-09-28T23:58:52.055Z,18.58
